Date,TemperatureHighF,TemperatureAvgF,TemperatureLowF,DewpointHighF,DewpointAvgF,DewpointLowF,HumidityHigh,HumidityAvg,HumidityLow,PressureMaxIn,PressureMinIn,WindSpeedMaxMPH,WindSpeedAvgMPH,GustSpeedMaxMPH,PrecipitationSumIn
2013-1-1,56,52,41,48,43,35,85,71,61,30.16,30.09,2,1,6,0.00
2013-1-2,57,54,49,48,46,45,88,75,67,30.22,30.07,8,3,16,0.01
2013-1-3,61,56,46,47,45,41,82,67,59,30.51,30.46,2,0,6,0.00
2013-1-4,60,55,45,46,43,40,83,66,54,30.48,30.35,3,1,6,0.00
2013-1-5,57,53,44,48,45,41,87,75,68,30.23,30.11,3,1,10,0.00
2013-1-6,59,54,43,50,46,39,86,75,67,30.25,30.14,3,1,6,0.00
2013-1-7,62,55,45,47,44,41,87,68,56,30.21,30.14,2,1,6,0.00
2013-1-9,56,54,48,46,44,42,86,69,62,30.23,30.17,3,1,7,0.00
2013-1-10,55,53,52,50,48,45,90,84,74,30.00,29.84,5,1,11,0.24
2013-1-11,56,51,45,50,46,43,95,82,73,29.85,29.69,9,2,18,0.02
2013-1-12,57,53,48,48,45,40,80,75,67,30.03,29.99,4,2,8,0.00
2013-1-13,55,54,49,51,49,45,87,84,78,29.94,29.77,10,3,22,0.10
2013-1-14,57,55,52,49,46,42,83,73,67,29.89,29.78,7,4,17,0.01
2013-1-15,56,52,47,43,40,37,79,65,50,29.89,29.71,5,3,12,0.03
2013-1-16,46,44,41,42,40,38,91,86,77,29.53,29.44,9,3,20,0.36
2013-1-17,50,45,39,45,40,35,87,83,78,29.43,29.30,9,2,22,0.06
2013-1-18,50,47,44,36,35,34,68,62,57,29.61,29.48,9,4,24,0.00
2013-1-19,49,44,39,44,40,33,85,83,81,29.67,29.53,6,2,13,0.10
2013-1-20,60,58,57,56,55,50,91,87,77,29.53,29.46,9,5,22,0.13
2013-1-21,56,52,49,50,45,42,90,78,69,29.53,29.41,11,2,22,0.00
2013-1-22,56,53,49,43,40,36,75,61,47,29.78,29.63,8,3,19,0.01
2013-1-23,50,48,46,45,43,40,88,82,75,29.80,29.64,6,3,15,0.31
2013-1-24,55,51,46,46,43,40,88,73,63,29.49,29.40,4,1,10,0.00
2013-1-25,55,52,46,41,38,34,75,60,54,29.63,29.51,5,2,17,0.00
2013-1-26,53,49,42,34,32,30,65,52,46,29.84,29.70,5,2,11,0.00
2013-1-27,54,48,38,39,35,30,73,61,56,30.00,29.97,3,1,8,0.00
2013-1-28,48,47,45,45,43,41,89,86,83,29.94,29.83,9,4,22,0.45
2013-1-29,58,53,44,46,43,39,84,69,55,30.25,30.19,4,1,9,0.01
2013-1-30,61,56,44,48,45,40,86,69,58,30.24,30.17,3,1,8,0.00
2013-1-31,67,60,48,53,51,44,87,73,57,30.21,30.15,5,1,9,0.00
2013-2-1,62,58,50,53,51,46,87,77,69,30.07,29.89,5,2,12,0.00
2013-2-2,61,57,53,54,50,42,87,78,65,29.45,29.25,9,6,31,0.09
2013-2-3,57,53,46,43,38,32,80,60,42,29.79,29.45,7,3,14,0.00
2013-2-4,57,51,41,39,32,25,63,50,32,30.15,30.09,6,2,12,0.00
2013-2-5,55,53,45,50,46,37,87,78,69,30.07,29.85,6,3,16,0.00
2013-2-6,57,54,50,47,40,33,83,60,44,29.65,29.51,11,4,29,0.06
2013-2-7,50,46,42,43,41,39,90,82,68,29.53,29.46,8,2,17,0.25
2013-2-8,54,50,44,35,32,28,67,52,46,29.71,29.64,5,2,18,0.00
2013-2-9,50,47,40,29,27,24,63,47,38,29.89,29.81,6,3,16,0.00
2013-2-10,50,46,37,27,20,15,67,38,25,29.95,29.91,4,2,10,0.00
2013-2-11,55,48,42,47,41,28,89,76,56,29.81,29.53,12,6,32,0.43
2013-2-12,55,52,47,46,44,42,88,75,64,29.66,29.61,5,1,11,0.10
2013-2-13,56,51,44,40,37,35,77,60,49,29.77,29.69,4,2,10,0.00
2013-2-14,58,54,45,38,37,36,70,54,46,29.98,29.94,4,2,11,0.00
2013-2-15,56,51,41,40,38,35,81,62,48,30.02,29.94,3,1,7,0.00
2013-2-16,59,54,44,44,40,35,72,60,44,30.07,30.01,4,2,11,0.00
2013-2-17,55,50,41,44,40,35,80,69,62,30.05,29.97,6,2,13,0.02
2013-2-18,54,49,41,42,39,36,84,69,58,30.01,29.94,4,1,9,0.00
2013-2-19,56,51,41,37,34,29,73,54,35,30.02,29.93,4,2,12,0.00
2013-2-20,56,50,36,40,37,31,82,61,51,30.01,29.90,4,1,10,0.00
2013-2-21,58,52,40,43,40,35,83,63,48,29.84,29.71,6,2,11,0.00
2013-2-22,56,52,48,48,46,45,89,80,70,29.62,29.43,9,3,20,0.01
2013-2-23,56,53,49,53,49,42,91,85,76,29.53,29.39,14,7,31,0.56
2013-2-24,50,47,43,38,36,32,78,64,52,29.89,29.73,9,4,25,0.01
2013-2-25,47,44,42,40,39,38,89,81,75,30.05,30.01,9,4,16,0.05
2013-2-26,56,52,43,41,39,36,80,61,51,30.11,30.07,5,2,10,0.00
2013-2-27,60,55,44,37,35,33,68,48,39,30.18,30.12,4,1,12,0.00
2013-2-28,60,55,43,44,40,36,78,59,47,30.24,30.14,5,2,11,0.00
2013-3-1,57,54,47,43,41,39,75,62,53,30.07,29.89,2,1,7,0.00
2013-3-2,64,58,50,45,41,32,75,54,39,29.93,29.80,5,2,14,0.00
2013-3-3,63,57,45,48,43,34,76,60,49,30.06,29.99,4,2,11,0.00
2013-3-4,62,57,44,46,44,40,85,62,50,30.14,30.09,5,2,11,0.00
2013-3-5,61,56,46,46,42,36,84,62,44,30.18,30.02,4,1,11,0.00
2013-3-6,63,58,54,55,50,43,92,76,52,29.82,29.69,16,8,33,0.39
2013-3-7,63,61,57,57,56,55,92,83,75,29.77,29.71,5,3,11,0.01
2013-3-8,61,60,57,56,55,53,87,83,78,29.75,29.64,6,3,17,0.09
2013-3-9,66,62,58,54,52,48,85,70,52,29.70,29.66,8,6,18,0.00
2013-3-10,65,61,56,54,50,47,92,69,56,29.69,29.55,8,4,19,0.25
2013-3-11,63,60,56,53,51,49,90,73,61,29.61,29.53,9,4,17,0.00
2013-3-12,60,54,49,53,48,44,88,81,67,29.59,29.50,7,4,16,0.38
2013-3-13,55,52,47,51,48,45,90,87,82,29.51,29.32,8,2,14,0.24
2013-3-14,60,55,47,48,42,37,91,64,49,29.25,29.12,10,4,19,0.00
2013-3-15,57,53,47,33,31,28,56,43,37,29.77,29.50,6,2,15,0.00